PWSweather.com
Personal Weather Stations
Station Observations
COONRAPIDS
Minneapolis, MN 55433

Minneapolis, MN 55433

Lat: 45.187721, Lon: -93.36828

Elevation: 898

Station Type: Davis Vantage Pro 2

Latest ConditionsUpdated 9:40:01 PM CDT Wednesday, May 25, 2016
Currently Today's Max Today's Min Today's Average
Temperature 66.7°F19.3°C 78.6°F25.9°C 59.9°F15.5°C 67.1°F19.5°C
Dew Point 61.7°F16.5°C 65.4°F18.6°C 54.1°F12.3°C 59.3°F15.2°C
Winds Calm Calm 3.5 mph W5.6 kmh W - 0.1 mph 0.2 kmh
Wind Gusts -- 8.1 mph13.0 kmh - -
Humidity 84% 90% 57% 76%
Pressure 29.77 in1008.1 mb 29.89 in1012.2 mb 29.74 in1007.1 mb -
Precipitation - 0.49 in12.4 mm - -
Hour Temp Dew Point Humidity Winds Wind Gusts Pressure Precip Precip Rate Daily Precip Total
09:40 PM 66.7°F19.3°C 61.7°F16.5°C 84% Calm Calm -- 29.77 in1008.1 mb - 0.00 in0.0 mm 0.49 in12.4 mm
09:30 PM 67.1°F19.5°C 61.7°F16.5°C 83% 1.2 mph NE1.9 kmh NE 2.3 mph3.7 kmh 29.77 in1008.1 mb - 0.00 in0.0 mm 0.49 in12.4 mm
09:20 PM 67.4°F19.7°C 62.1°F16.7°C 83% Calm Calm -- 29.77 in1008.1 mb - 0.00 in0.0 mm 0.49 in12.4 mm
09:10 PM 67.9°F19.9°C 62.2°F16.8°C 82% 1.2 mph NE1.9 kmh NE 1.2 mph1.9 kmh 29.76 in1007.8 mb - 0.00 in0.0 mm 0.49 in12.4 mm
09:00 PM 68.5°F20.3°C 62.1°F16.7°C 80% Calm Calm -- 29.76 in1007.8 mb - 0.00 in0.0 mm 0.49 in12.4 mm
08:50 PM 69.2°F20.7°C 62.4°F16.9°C 79% Calm Calm 1.2 mph1.9 kmh 29.76 in1007.8 mb - 0.00 in0.0 mm 0.49 in12.4 mm
08:40 PM 70.0°F21.1°C 62.4°F16.9°C 77% 1.2 mph NE1.9 kmh NE 2.3 mph3.7 kmh 29.76 in1007.8 mb - 0.00 in0.0 mm 0.49 in12.4 mm
08:30 PM 70.4°F21.3°C 61.7°F16.5°C 74% Calm Calm -- 29.76 in1007.8 mb - 0.00 in0.0 mm 0.49 in12.4 mm
08:20 PM 70.9°F21.6°C 61.4°F16.3°C 72% Calm Calm -- 29.76 in1007.8 mb - 0.00 in0.0 mm 0.49 in12.4 mm
08:10 PM 71.3°F21.8°C 61.8°F16.6°C 72% Calm Calm -- 29.76 in1007.8 mb - 0.00 in0.0 mm 0.49 in12.4 mm
08:00 PM 71.8°F22.1°C 61.9°F16.6°C 71% Calm Calm -- 29.76 in1007.8 mb - 0.00 in0.0 mm 0.49 in12.4 mm
07:50 PM 72.4°F22.4°C 61.7°F16.5°C 69% Calm Calm -- 29.76 in1007.8 mb - 0.00 in0.0 mm 0.49 in12.4 mm
07:40 PM 73.1°F22.8°C 61.9°F16.6°C 68% Calm Calm -- 29.76 in1007.8 mb - 0.00 in0.0 mm 0.49 in12.4 mm
07:30 PM 73.8°F23.2°C 62.2°F16.8°C 67% Calm Calm -- 29.76 in1007.8 mb - 0.00 in0.0 mm 0.49 in12.4 mm
07:20 PM 74.5°F23.6°C 61.5°F16.4°C 64% Calm Calm -- 29.75 in1007.5 mb - 0.00 in0.0 mm 0.49 in12.4 mm
07:10 PM 75.2°F24.0°C 60.9°F16.1°C 61% Calm Calm -- 29.75 in1007.5 mb - 0.00 in0.0 mm 0.49 in12.4 mm
07:00 PM 76.2°F24.6°C 62.3°F16.8°C 62% Calm Calm -- 29.75 in1007.5 mb - 0.00 in0.0 mm 0.49 in12.4 mm
06:50 PM 77.3°F25.2°C 62.3°F16.8°C 60% Calm Calm -- 29.75 in1007.5 mb - 0.00 in0.0 mm 0.49 in12.4 mm
06:40 PM 77.9°F25.5°C 61.5°F16.4°C 57% Calm Calm -- 29.75 in1007.5 mb - 0.00 in0.0 mm 0.49 in12.4 mm
06:30 PM 78.6°F25.9°C 62.1°F16.7°C 57% Calm Calm -- 29.74 in1007.1 mb - 0.00 in0.0 mm 0.49 in12.4 mm
06:20 PM 78.4°F25.8°C 63.4°F17.4°C 60% Calm Calm -- 29.74 in1007.1 mb - 0.00 in0.0 mm 0.49 in12.4 mm
06:10 PM 78.0°F25.6°C 62.0°F16.7°C 58% Calm Calm -- 29.74 in1007.1 mb - 0.00 in0.0 mm 0.49 in12.4 mm
06:00 PM 78.2°F25.7°C 62.7°F17.1°C 59% Calm Calm -- 29.74 in1007.1 mb - 0.00 in0.0 mm 0.49 in12.4 mm
05:50 PM 77.6°F25.3°C 62.6°F17.0°C 60% Calm Calm -- 29.74 in1007.1 mb - 0.00 in0.0 mm 0.49 in12.4 mm
05:40 PM 77.1°F25.1°C 63.1°F17.3°C 62% Calm Calm -- 29.74 in1007.1 mb - 0.00 in0.0 mm 0.49 in12.4 mm
05:30 PM 75.9°F24.4°C 62.4°F16.9°C 63% Calm Calm -- 29.74 in1007.1 mb - 0.00 in0.0 mm 0.49 in12.4 mm
05:20 PM 75.5°F24.2°C 62.0°F16.7°C 63% Calm Calm -- 29.75 in1007.5 mb - 0.00 in0.0 mm 0.49 in12.4 mm
05:10 PM 75.6°F24.2°C 63.4°F17.4°C 66% Calm Calm -- 29.75 in1007.5 mb - 0.00 in0.0 mm 0.49 in12.4 mm
05:00 PM 76.1°F24.5°C 62.6°F17.0°C 63% Calm Calm -- 29.75 in1007.5 mb - 0.00 in0.0 mm 0.49 in12.4 mm
04:50 PM 76.9°F24.9°C 63.3°F17.4°C 63% Calm Calm -- 29.75 in1007.5 mb - 0.00 in0.0 mm 0.49 in12.4 mm
04:40 PM 75.2°F24.0°C 63.0°F17.2°C 66% Calm Calm -- 29.75 in1007.5 mb - 0.00 in0.0 mm 0.49 in12.4 mm
04:30 PM 74.6°F23.7°C 62.9°F17.2°C 67% Calm Calm -- 29.75 in1007.5 mb - 0.00 in0.0 mm 0.49 in12.4 mm
04:20 PM 75.2°F24.0°C 63.4°F17.4°C 67% Calm Calm -- 29.76 in1007.8 mb - 0.00 in0.0 mm 0.49 in12.4 mm
04:10 PM 75.6°F24.2°C 64.3°F17.9°C 68% Calm Calm -- 29.75 in1007.5 mb - 0.00 in0.0 mm 0.49 in12.4 mm
04:00 PM 75.6°F24.2°C 65.1°F18.4°C 70% Calm Calm -- 29.76 in1007.8 mb - 0.00 in0.0 mm 0.49 in12.4 mm
03:50 PM 74.4°F23.6°C 65.2°F18.4°C 73% Calm Calm 1.2 mph1.9 kmh 29.76 in1007.8 mb - 0.00 in0.0 mm 0.49 in12.4 mm
03:40 PM 72.9°F22.7°C 64.5°F18.1°C 75% Calm Calm -- 29.77 in1008.1 mb - 0.00 in0.0 mm 0.49 in12.4 mm
03:30 PM 72.0°F22.2°C 64.0°F17.8°C 76% Calm Calm -- 29.78 in1008.5 mb - 0.00 in0.0 mm 0.49 in12.4 mm
03:20 PM 71.5°F21.9°C 63.5°F17.5°C 76% Calm Calm -- 29.79 in1008.8 mb - 0.00 in0.0 mm 0.49 in12.4 mm
03:10 PM 71.3°F21.8°C 63.3°F17.4°C 76% Calm Calm -- 29.79 in1008.8 mb - 0.00 in0.0 mm 0.49 in12.4 mm
03:00 PM 71.5°F21.9°C 63.2°F17.3°C 75% 1.2 mph ESE1.9 kmh ESE 2.3 mph3.7 kmh 29.79 in1008.8 mb - 0.00 in0.0 mm 0.49 in12.4 mm
02:50 PM 71.2°F21.8°C 64.0°F17.8°C 78% Calm Calm -- 29.79 in1008.8 mb - 0.00 in0.0 mm 0.49 in12.4 mm
02:40 PM 70.4°F21.3°C 63.9°F17.7°C 80% Calm Calm -- 29.79 in1008.8 mb - 0.00 in0.0 mm 0.49 in12.4 mm
02:30 PM 70.1°F21.2°C 63.6°F17.6°C 80% Calm Calm -- 29.80 in1009.1 mb - 0.00 in0.0 mm 0.49 in12.4 mm
02:20 PM 70.2°F21.2°C 63.8°F17.7°C 80% Calm Calm -- 29.80 in1009.1 mb - 0.00 in0.0 mm 0.49 in12.4 mm
02:10 PM 70.4°F21.3°C 63.9°F17.7°C 80% Calm Calm 1.2 mph1.9 kmh 29.80 in1009.1 mb - 0.00 in0.0 mm 0.49 in12.4 mm
02:00 PM 70.3°F21.3°C 64.5°F18.1°C 82% Calm Calm -- 29.80 in1009.1 mb - 0.00 in0.0 mm 0.49 in12.4 mm
01:50 PM 69.1°F20.6°C 65.4°F18.6°C 88% 1.2 mph NE1.9 kmh NE -- 29.80 in1009.1 mb - 0.00 in0.0 mm 0.49 in12.4 mm
01:40 PM 67.6°F19.8°C 63.9°F17.7°C 88% 1.2 mph NE1.9 kmh NE 3.5 mph5.6 kmh 29.81 in1009.5 mb - 0.00 in0.0 mm 0.49 in12.4 mm
01:30 PM 67.4°F19.7°C 63.7°F17.6°C 88% Calm Calm -- 29.81 in1009.5 mb - 0.00 in0.0 mm 0.49 in12.4 mm
01:20 PM 67.2°F19.6°C 63.8°F17.7°C 89% Calm Calm -- 29.81 in1009.5 mb - 0.00 in0.0 mm 0.49 in12.4 mm
01:10 PM 66.5°F19.2°C 63.2°F17.3°C 89% Calm Calm -- 29.80 in1009.1 mb - 0.00 in0.0 mm 0.49 in12.4 mm
01:00 PM 66.4°F19.1°C 63.1°F17.3°C 89% Calm Calm -- 29.80 in1009.1 mb - 0.00 in0.0 mm 0.49 in12.4 mm
12:50 PM 66.4°F19.1°C 63.0°F17.2°C 89% 1.2 mph NE1.9 kmh NE 1.2 mph1.9 kmh 29.80 in1009.1 mb - 0.00 in0.0 mm 0.49 in12.4 mm
12:40 PM 66.6°F19.2°C 63.6°F17.6°C 90% Calm Calm -- 29.81 in1009.5 mb - 0.01 in0.3 mm 0.49 in12.4 mm
12:30 PM 66.5°F19.2°C 63.5°F17.5°C 90% Calm Calm -- 29.82 in1009.8 mb - 0.00 in0.0 mm 0.48 in12.2 mm
12:20 PM 66.1°F18.9°C 62.8°F17.1°C 89% Calm Calm -- 29.82 in1009.8 mb - 0.00 in0.0 mm 0.48 in12.2 mm
12:10 PM 65.7°F18.7°C 62.4°F16.9°C 89% Calm Calm -- 29.82 in1009.8 mb - 0.00 in0.0 mm 0.48 in12.2 mm
12:00 PM 65.1°F18.4°C 61.8°F16.6°C 89% Calm Calm -- 29.83 in1010.2 mb - 0.00 in0.0 mm 0.48 in12.2 mm
11:50 AM 64.9°F18.3°C 61.6°F16.4°C 89% Calm Calm -- 29.83 in1010.2 mb - 0.00 in0.0 mm 0.48 in12.2 mm
11:40 AM 64.6°F18.1°C 61.3°F16.3°C 89% Calm Calm -- 29.83 in1010.2 mb - 0.00 in0.0 mm 0.48 in12.2 mm
11:30 AM 64.5°F18.1°C 61.2°F16.2°C 89% Calm Calm 3.5 mph5.6 kmh 29.82 in1009.8 mb - 0.00 in0.0 mm 0.48 in12.2 mm
11:20 AM 64.9°F18.3°C 61.6°F16.4°C 89% 1.2 mph SSW1.9 kmh SSW 3.5 mph5.6 kmh 29.84 in1010.5 mb - 0.01 in0.3 mm 0.48 in12.2 mm
11:10 AM 64.8°F18.2°C 61.2°F16.2°C 88% Calm Calm -- 29.85 in1010.8 mb - 0.01 in0.3 mm 0.47 in11.9 mm
11:00 AM 64.5°F18.1°C 60.9°F16.1°C 88% Calm Calm -- 29.86 in1011.2 mb - 0.02 in0.5 mm 0.46 in11.7 mm
10:50 AM 64.2°F17.9°C 60.6°F15.9°C 88% Calm Calm -- 29.87 in1011.5 mb - 0.01 in0.3 mm 0.45 in11.4 mm
10:40 AM 63.9°F17.7°C 59.6°F15.3°C 86% Calm Calm -- 29.87 in1011.5 mb - 0.05 in1.3 mm 0.44 in11.2 mm
10:30 AM 64.3°F17.9°C 59.0°F15.0°C 83% 3.5 mph W5.6 kmh W 8.1 mph13.0 kmh 29.86 in1011.2 mb - 0.36 in9.1 mm 0.43 in10.9 mm
10:20 AM 67.3°F19.6°C 61.2°F16.2°C 81% Calm Calm 3.5 mph5.6 kmh 29.86 in1011.2 mb - 0.07 in1.8 mm 0.10 in2.5 mm
10:10 AM 68.9°F20.5°C 61.1°F16.2°C 76% Calm Calm 1.2 mph1.9 kmh 29.85 in1010.8 mb - 0.03 in0.8 mm 0.03 in0.8 mm
10:00 AM 69.2°F20.7°C 59.4°F15.2°C 71% Calm Calm -- 29.84 in1010.5 mb - 0.00 in0.0 mm 0.00 in0.0 mm
09:50 AM 69.1°F20.6°C 59.3°F15.2°C 71% Calm Calm -- 29.84 in1010.5 mb - 0.00 in0.0 mm 0.00 in0.0 mm
09:40 AM 69.2°F20.7°C 59.0°F15.0°C 70% Calm Calm -- 29.84 in1010.5 mb - 0.00 in0.0 mm 0.00 in0.0 mm
09:30 AM 69.3°F20.7°C 59.1°F15.1°C 70% Calm Calm -- 29.83 in1010.2 mb - 0.00 in0.0 mm 0.00 in0.0 mm
09:20 AM 69.1°F20.6°C 58.5°F14.7°C 69% Calm Calm -- 29.84 in1010.5 mb - 0.00 in0.0 mm 0.00 in0.0 mm
09:10 AM 68.8°F20.4°C 58.2°F14.6°C 69% Calm Calm -- 29.84 in1010.5 mb - 0.00 in0.0 mm 0.00 in0.0 mm
09:00 AM 68.3°F20.2°C 58.5°F14.7°C 71% Calm Calm -- 29.84 in1010.5 mb - 0.00 in0.0 mm 0.00 in0.0 mm
08:50 AM 67.2°F19.6°C 58.2°F14.6°C 73% Calm Calm -- 29.85 in1010.8 mb - 0.00 in0.0 mm 0.00 in0.0 mm
08:40 AM 66.4°F19.1°C 57.9°F14.4°C 74% Calm Calm -- 29.85 in1010.8 mb - 0.00 in0.0 mm 0.00 in0.0 mm
08:30 AM 65.8°F18.8°C 57.7°F14.3°C 75% Calm Calm -- 29.85 in1010.8 mb - 0.00 in0.0 mm 0.00 in0.0 mm
08:20 AM 65.3°F18.5°C 57.2°F14.0°C 75% Calm Calm 1.2 mph1.9 kmh 29.85 in1010.8 mb - 0.00 in0.0 mm 0.00 in0.0 mm
08:10 AM 64.6°F18.1°C 56.9°F13.8°C 76% Calm Calm 1.2 mph1.9 kmh 29.85 in1010.8 mb - 0.00 in0.0 mm 0.00 in0.0 mm
08:00 AM 64.0°F17.8°C 56.2°F13.4°C 76% Calm Calm -- 29.85 in1010.8 mb - 0.00 in0.0 mm 0.00 in0.0 mm
07:50 AM 63.4°F17.4°C 56.1°F13.4°C 77% Calm Calm -- 29.86 in1011.2 mb - 0.00 in0.0 mm 0.00 in0.0 mm
07:40 AM 62.8°F17.1°C 55.9°F13.3°C 78% Calm Calm -- 29.86 in1011.2 mb - 0.00 in0.0 mm 0.00 in0.0 mm
07:30 AM 62.4°F16.9°C 55.8°F13.2°C 79% Calm Calm -- 29.86 in1011.2 mb - 0.00 in0.0 mm 0.00 in0.0 mm
07:20 AM 62.2°F16.8°C 55.3°F12.9°C 78% Calm Calm -- 29.86 in1011.2 mb - 0.00 in0.0 mm 0.00 in0.0 mm
07:10 AM 62.0°F16.7°C 55.0°F12.8°C 78% Calm Calm 2.3 mph3.7 kmh 29.86 in1011.2 mb - 0.00 in0.0 mm 0.00 in0.0 mm
07:00 AM 61.8°F16.6°C 55.2°F12.9°C 79% Calm Calm -- 29.85 in1010.8 mb - 0.00 in0.0 mm 0.00 in0.0 mm
06:50 AM 61.4°F16.3°C 54.9°F12.7°C 79% Calm Calm -- 29.84 in1010.5 mb - 0.00 in0.0 mm 0.00 in0.0 mm
06:40 AM 61.3°F16.3°C 54.7°F12.6°C 79% Calm Calm -- 29.83 in1010.2 mb - 0.00 in0.0 mm 0.00 in0.0 mm
06:30 AM 61.1°F16.2°C 54.5°F12.5°C 79% Calm Calm 2.3 mph3.7 kmh 29.83 in1010.2 mb - 0.00 in0.0 mm 0.00 in0.0 mm
06:20 AM 61.0°F16.1°C 54.4°F12.4°C 79% Calm Calm -- 29.83 in1010.2 mb - 0.00 in0.0 mm 0.00 in0.0 mm
06:10 AM 60.9°F16.1°C 54.3°F12.4°C 79% Calm Calm -- 29.83 in1010.2 mb - 0.00 in0.0 mm 0.00 in0.0 mm
06:00 AM 60.7°F15.9°C 54.2°F12.3°C 79% Calm Calm -- 29.84 in1010.5 mb - 0.00 in0.0 mm 0.00 in0.0 mm
05:50 AM 60.7°F15.9°C 54.1°F12.3°C 79% Calm Calm -- 29.84 in1010.5 mb - 0.00 in0.0 mm 0.00 in0.0 mm
05:40 AM 60.8°F16.0°C 54.2°F12.3°C 79% Calm Calm -- 29.83 in1010.2 mb - 0.00 in0.0 mm 0.00 in0.0 mm
05:30 AM 61.0°F16.1°C 54.4°F12.4°C 79% Calm Calm -- 29.83 in1010.2 mb - 0.00 in0.0 mm 0.00 in0.0 mm
05:20 AM 61.1°F16.2°C 54.2°F12.3°C 78% Calm Calm -- 29.83 in1010.2 mb - 0.00 in0.0 mm 0.00 in0.0 mm
05:10 AM 61.1°F16.2°C 54.5°F12.5°C 79% Calm Calm -- 29.83 in1010.2 mb - 0.00 in0.0 mm 0.00 in0.0 mm
05:00 AM 61.1°F16.2°C 54.5°F12.5°C 79% Calm Calm -- 29.83 in1010.2 mb - 0.00 in0.0 mm 0.00 in0.0 mm
04:50 AM 60.8°F16.0°C 55.0°F12.8°C 81% Calm Calm -- 29.83 in1010.2 mb - 0.00 in0.0 mm 0.00 in0.0 mm
04:40 AM 60.3°F15.7°C 55.1°F12.8°C 83% 1.2 mph NE1.9 kmh NE 3.5 mph5.6 kmh 29.84 in1010.5 mb - 0.00 in0.0 mm 0.00 in0.0 mm
04:30 AM 59.9°F15.5°C 54.8°F12.7°C 83% Calm Calm -- 29.84 in1010.5 mb - 0.00 in0.0 mm 0.00 in0.0 mm
04:20 AM 60.1°F15.6°C 54.6°F12.6°C 82% Calm Calm -- 29.85 in1010.8 mb - 0.00 in0.0 mm 0.00 in0.0 mm
04:10 AM 60.3°F15.7°C 54.8°F12.7°C 82% Calm Calm -- 29.85 in1010.8 mb - 0.00 in0.0 mm 0.00 in0.0 mm
04:00 AM 60.3°F15.7°C 54.8°F12.7°C 82% Calm Calm -- 29.86 in1011.2 mb - 0.00 in0.0 mm 0.00 in0.0 mm
03:50 AM 60.2°F15.7°C 54.7°F12.6°C 82% Calm Calm -- 29.86 in1011.2 mb - 0.00 in0.0 mm 0.00 in0.0 mm
03:40 AM 60.1°F15.6°C 54.6°F12.6°C 82% Calm Calm -- 29.86 in1011.2 mb - 0.00 in0.0 mm 0.00 in0.0 mm
03:30 AM 60.0°F15.6°C 54.5°F12.5°C 82% Calm Calm -- 29.86 in1011.2 mb - 0.00 in0.0 mm 0.00 in0.0 mm
03:20 AM 60.2°F15.7°C 54.6°F12.6°C 82% Calm Calm -- 29.87 in1011.5 mb - 0.00 in0.0 mm 0.00 in0.0 mm
03:10 AM 60.4°F15.8°C 54.5°F12.5°C 81% Calm Calm -- 29.87 in1011.5 mb - 0.00 in0.0 mm 0.00 in0.0 mm
03:00 AM 60.6°F15.9°C 54.8°F12.7°C 81% Calm Calm -- 29.87 in1011.5 mb - 0.00 in0.0 mm 0.00 in0.0 mm
02:50 AM 60.8°F16.0°C 54.6°F12.6°C 80% Calm Calm -- 29.87 in1011.5 mb - 0.00 in0.0 mm 0.00 in0.0 mm
02:40 AM 61.1°F16.2°C 54.5°F12.5°C 79% Calm Calm -- 29.87 in1011.5 mb - 0.00 in0.0 mm 0.00 in0.0 mm
02:30 AM 61.4°F16.3°C 54.8°F12.7°C 79% Calm Calm -- 29.87 in1011.5 mb - 0.00 in0.0 mm 0.00 in0.0 mm
02:20 AM 61.9°F16.6°C 55.0°F12.8°C 78% Calm Calm -- 29.88 in1011.9 mb - 0.00 in0.0 mm 0.00 in0.0 mm
02:10 AM 62.4°F16.9°C 54.7°F12.6°C 76% Calm Calm -- 29.88 in1011.9 mb - 0.00 in0.0 mm 0.00 in0.0 mm
02:00 AM 62.7°F17.1°C 54.7°F12.6°C 75% Calm Calm -- 29.89 in1012.2 mb - 0.00 in0.0 mm 0.00 in0.0 mm
01:50 AM 62.7°F17.1°C 54.7°F12.6°C 75% Calm Calm -- 29.88 in1011.9 mb - 0.00 in0.0 mm 0.00 in0.0 mm
01:40 AM 62.8°F17.1°C 54.7°F12.6°C 75% Calm Calm -- 29.88 in1011.9 mb - 0.00 in0.0 mm 0.00 in0.0 mm
01:30 AM 62.7°F17.1°C 54.7°F12.6°C 75% Calm Calm -- 29.87 in1011.5 mb - 0.00 in0.0 mm 0.00 in0.0 mm
01:20 AM 62.7°F17.1°C 54.6°F12.6°C 75% Calm Calm -- 29.87 in1011.5 mb - 0.00 in0.0 mm 0.00 in0.0 mm
01:10 AM 62.7°F17.1°C 54.3°F12.4°C 74% Calm Calm -- 29.87 in1011.5 mb - 0.00 in0.0 mm 0.00 in0.0 mm
01:00 AM 62.9°F17.2°C 54.5°F12.5°C 74% Calm Calm -- 29.86 in1011.2 mb - 0.00 in0.0 mm 0.00 in0.0 mm
12:50 AM 63.1°F17.3°C 54.7°F12.6°C 74% Calm Calm -- 29.86 in1011.2 mb - 0.00 in0.0 mm 0.00 in0.0 mm
12:40 AM 63.4°F17.4°C 54.6°F12.6°C 73% Calm Calm -- 29.87 in1011.5 mb - 0.00 in0.0 mm 0.00 in0.0 mm
12:30 AM 63.8°F17.7°C 55.0°F12.8°C 73% Calm Calm -- 29.86 in1011.2 mb - 0.00 in0.0 mm 0.00 in0.0 mm
12:20 AM 64.1°F17.8°C 54.5°F12.5°C 71% Calm Calm -- 29.87 in1011.5 mb - 0.00 in0.0 mm 0.00 in0.0 mm
12:10 AM 64.5°F18.1°C 54.5°F12.5°C 70% Calm Calm -- 29.86 in1011.2 mb - 0.00 in0.0 mm 0.00 in0.0 mm
12:00 AM 64.6°F18.1°C 55.0°F12.8°C 71% Calm Calm -- 29.86 in1011.2 mb - 0.00 in0.0 mm 0.00 in0.0 mm